Wilberforce, Ohio
Current Conditions -  °F | °C
As of 10:56 PM on Thursday 20 Nov 2014 (Local Time) from KSGH Reporting Station
Few Clouds Few Clouds  
Wind Chill: 11°   Ceiling: Unl
Heat Index: 23°   Visibility: 9mi
Dew Point: 14°   Wind: 13mph
Humidity: 68%   Direction: 260°W
Pressure: 30.21"   Gusts: NA
Location:  39.72°N, 83.88°W
Report Text: KSGH 210356Z AUTO 26011KT 9SM FEW043 M05/M10 A3021 RMK AO2 T10501100 410111061 SLP245 $
Loading
Personal Weather Stations






























Interactive Weather Map New forecast layout! Learn more

10-Day Weather Forecast

Advertisements
Track Severe Weather on mobile